Time;durP1;ratioP1;P1;durP2;ratioP2;P2;SDS_P1;SDS_P2;PMS_P1;PMS_P2;Temp;Humidity;BMP_temperature;BMP_pressure;BME280_temperature;BME280_humidity;BME280_pressure;Samples;Min_cycle;Max_cycle;Signal;HPM_P1;HPM_P2
2022/01/27 00:01:50;;;;;;;12.90;8.83;;;;;;;1.45;93.39;100248.34;5065830;28;20653;-65
2022/01/27 00:04:21;;;;;;;10.63;9.17;;;;;;;1.44;93.86;100253.38;5068705;28;20287;-64
2022/01/27 00:06:48;;;;;;;11.93;8.90;;;;;;;1.42;93.99;100255.00;5068183;28;20613;-64
2022/01/27 00:09:23;;;;;;;11.73;10.50;;;;;;;1.39;94.29;100244.84;5069363;28;20287;-64
2022/01/27 00:11:50;;;;;;;12.57;9.93;;;;;;;1.42;94.14;100250.78;5069481;28;20223;-64
2022/01/27 00:14:20;;;;;;;15.10;9.67;;;;;;;1.36;94.43;100254.88;5068881;28;20683;-65
2022/01/27 00:16:55;;;;;;;11.17;9.20;;;;;;;1.38;94.51;100264.19;5069626;28;20197;-65
2022/01/27 00:19:22;;;;;;;15.97;10.07;;;;;;;1.36;94.49;100255.72;5066074;28;20204;-65
2022/01/27 00:21:49;;;;;;;13.40;10.00;;;;;;;1.33;95.07;100258.19;5069797;28;20973;-65
2022/01/27 00:24:18;;;;;;;11.77;8.97;;;;;;;1.36;95.50;100264.97;5069446;28;20282;-64
2022/01/27 00:26:46;;;;;;;15.77;9.20;;;;;;;1.38;95.44;100260.81;5071110;28;20771;-65
2022/01/27 00:29:13;;;;;;;15.23;9.97;;;;;;;1.40;95.60;100259.16;5066608;28;20204;-64
2022/01/27 00:31:40;;;;;;;16.67;10.23;;;;;;;1.42;96.18;100255.84;5068887;28;20287;-64
2022/01/27 00:34:07;;;;;;;12.27;10.17;;;;;;;1.45;95.82;100260.13;5070862;28;20200;-65
2022/01/27 00:36:34;;;;;;;12.63;9.57;;;;;;;1.46;96.30;100246.66;5070999;28;20291;-64
2022/01/27 00:39:02;;;;;;;12.23;9.77;;;;;;;1.35;96.48;100217.81;5070550;28;20208;-65
2022/01/27 00:41:30;;;;;;;9.53;8.60;;;;;;;1.53;96.68;100243.44;5070733;28;20299;-64
2022/01/27 00:43:57;;;;;;;20.77;8.67;;;;;;;1.45;96.88;100225.63;5070560;28;20231;-65
2022/01/27 00:46:24;;;;;;;12.00;9.27;;;;;;;1.58;97.26;100241.84;5069552;28;20720;-65
2022/01/27 00:48:51;;;;;;;10.73;8.57;;;;;;;1.60;97.31;100240.19;5070775;28;20220;-65
2022/01/27 00:51:23;;;;;;;14.27;9.57;;;;;;;1.63;97.25;100234.34;5068227;28;20291;-64
2022/01/27 00:53:55;;;;;;;13.50;10.73;;;;;;;1.64;97.26;100231.00;5070900;28;20197;-64
2022/01/27 00:56:32;;;;;;;13.73;9.10;;;;;;;1.68;97.42;100226.03;5070217;28;20201;-65
2022/01/27 00:59:17;;;;;;;10.73;9.13;;;;;;;1.71;97.12;100237.88;5069023;28;20202;-64
2022/01/27 01:01:50;;;;;;;12.53;8.83;;;;;;;1.73;97.23;100226.97;5069248;28;20199;-65
2022/01/27 01:04:24;;;;;;;11.70;9.23;;;;;;;1.78;96.80;100229.59;5068970;28;20676;-65
2022/01/27 01:06:52;;;;;;;12.13;8.80;;;;;;;1.71;96.74;100208.41;5069775;28;20690;-65
2022/01/27 01:14:54;;;;;;;12.83;9.40;;;;;;;1.84;96.66;100212.84;5066371;28;20200;-65
2022/01/27 01:20:25;;;;;;;12.07;9.70;;;;;;;1.85;96.01;100212.03;5069516;28;20206;-65
2022/01/27 01:31:26;;;;;;;12.77;9.47;;;;;;;1.98;95.29;100219.00;5067632;28;20195;-64
2022/01/27 01:33:59;;;;;;;13.90;9.63;;;;;;;1.96;95.30;100215.59;5065003;28;20204;-64
2022/01/27 01:36:35;;;;;;;10.30;8.80;;;;;;;1.93;95.52;100213.03;5067777;28;20192;-65
2022/01/27 01:39:04;;;;;;;14.57;10.20;;;;;;;1.91;95.58;100207.06;5069965;28;20195;-65
2022/01/27 01:41:31;;;;;;;12.00;8.50;;;;;;;1.87;95.38;100210.38;5067505;28;20231;-64
2022/01/27 01:43:58;;;;;;;9.27;8.37;;;;;;;1.96;95.70;100215.59;5069405;28;20597;-65
2022/01/27 01:46:27;;;;;;;11.73;9.23;;;;;;;1.95;95.60;100213.88;5068862;28;20219;-65
2022/01/27 01:48:54;;;;;;;13.67;10.00;;;;;;;1.93;95.93;100223.13;5069552;28;20743;-65
2022/01/27 01:51:25;;;;;;;12.83;10.10;;;;;;;1.95;95.58;100211.34;5068891;28;20291;-64
2022/01/27 01:53:53;;;;;;;11.43;9.70;;;;;;;1.96;95.90;100207.16;5065682;28;20200;-64
2022/01/27 01:56:20;;;;;;;13.13;9.53;;;;;;;2.02;95.29;100204.72;5065493;28;20734;-64
2022/01/27 01:58:47;;;;;;;15.03;9.57;;;;;;;2.04;95.01;100203.94;5067445;28;20583;-65
2022/01/27 02:01:14;;;;;;;14.80;9.70;;;;;;;2.02;94.93;100204.72;5067230;28;20739;-64
2022/01/27 02:03:44;;;;;;;10.83;9.23;;;;;;;2.06;95.14;100198.91;5068903;28;20291;-65
2022/01/27 02:06:19;;;;;;;11.23;9.03;;;;;;;2.07;94.69;100198.06;5067502;28;20219;-64
2022/01/27 02:09:04;;;;;;;10.80;8.80;;;;;;;2.05;94.60;100205.63;5069279;28;20196;-65
2022/01/27 02:19:45;;;;;;;10.33;8.37;;;;;;;2.03;95.36;100201.38;5033068;28;20192;-64
2022/01/27 02:22:13;;;;;;;10.20;8.80;;;;;;;2.04;95.35;100201.41;5067094;28;20192;-64
2022/01/27 02:24:40;;;;;;;12.00;9.17;;;;;;;2.01;95.64;100200.50;5069779;28;20200;-64
2022/01/27 02:27:07;;;;;;;13.50;8.60;;;;;;;2.04;95.16;100201.41;5068427;28;20299;-64
2022/01/27 02:29:34;;;;;;;10.87;8.60;;;;;;;2.06;94.91;100197.22;5068878;28;20283;-64
2022/01/27 02:32:02;;;;;;;10.83;9.73;;;;;;;1.96;94.36;100172.63;5068927;28;20586;-65
2022/01/27 02:34:29;;;;;;;11.80;9.63;;;;;;;2.16;93.94;100198.22;5068882;28;20474;-65
2022/01/27 02:36:56;;;;;;;12.87;9.27;;;;;;;2.15;93.51;100196.53;5068953;28;20291;-64
2022/01/27 02:39:24;;;;;;;14.47;10.47;;;;;;;2.21;93.09;100203.34;5068295;28;20283;-65
2022/01/27 02:41:57;;;;;;;11.20;9.80;;;;;;;2.21;92.98;100195.75;5069004;28;20681;-64
2022/01/27 02:44:33;;;;;;;11.33;9.60;;;;;;;2.23;93.04;100206.78;5065988;28;20226;-64
2022/01/27 02:47:01;;;;;;;14.07;9.63;;;;;;;2.12;92.86;100186.34;5067077;28;20226;-65
2022/01/27 02:49:28;;;;;;;10.27;8.97;;;;;;;2.18;92.64;100190.66;5069091;28;20192;-64
2022/01/27 02:51:55;;;;;;;11.47;9.80;;;;;;;2.21;92.50;100193.22;5069201;28;20209;-64
2022/01/27 02:54:23;;;;;;;11.07;9.30;;;;;;;2.22;92.13;100192.41;5068293;28;20281;-64
2022/01/27 02:56:50;;;;;;;10.90;8.87;;;;;;;2.22;92.14;100192.41;5068243;28;20192;-64
2022/01/27 02:59:20;;;;;;;13.97;8.80;;;;;;;2.23;91.87;100186.53;5066938;28;20670;-64
2022/01/27 03:01:48;;;;;;;12.97;9.40;;;;;;;2.22;92.21;100187.34;5068753;28;20227;-65
2022/01/27 03:04:15;;;;;;;8.40;7.40;;;;;;;2.25;92.09;100187.41;5068049;28;20199;-64
2022/01/27 03:06:43;;;;;;;9.67;8.07;;;;;;;2.30;91.62;100195.91;5067492;28;20750;-65
2022/01/27 03:09:10;;;;;;;10.03;8.73;;;;;;;2.33;91.53;100195.94;5068746;28;20282;-64
2022/01/27 03:11:44;;;;;;;8.13;7.33;;;;;;;2.38;90.82;100194.34;5069246;28;20287;-64
2022/01/27 03:14:12;;;;;;;9.23;8.43;;;;;;;2.42;90.48;100189.38;5068171;28;20260;-65
2022/01/27 03:16:39;;;;;;;8.93;7.77;;;;;;;2.45;89.95;100186.03;5068780;28;20671;-64
2022/01/27 03:19:07;;;;;;;12.27;8.63;;;;;;;2.52;89.63;100187.84;5067983;28;20287;-65
2022/01/27 03:21:34;;;;;;;11.47;8.53;;;;;;;2.56;89.50;100192.09;5067954;28;20600;-65
2022/01/27 03:24:01;;;;;;;10.40;7.93;;;;;;;2.55;89.46;100191.22;5068392;28;20207;-64
2022/01/27 03:26:29;;;;;;;10.47;8.97;;;;;;;2.57;89.32;100192.13;5067960;28;20202;-64
2022/01/27 03:28:58;;;;;;;10.67;8.07;;;;;;;2.59;89.47;100192.13;5069241;28;20193;-66
2022/01/27 03:31:26;;;;;;;9.67;8.63;;;;;;;2.55;89.16;100192.94;5071471;28;20228;-65
2022/01/27 03:33:53;;;;;;;8.53;7.60;;;;;;;2.54;88.90;100183.63;5072407;28;20303;-65
2022/01/27 03:36:20;;;;;;;9.33;7.33;;;;;;;2.52;88.82;100177.72;5071448;28;20606;-65
2022/01/27 03:38:47;;;;;;;7.87;6.97;;;;;;;2.46;88.19;100177.59;5072299;28;20196;-64
2022/01/27 03:41:19;;;;;;;8.17;7.37;;;;;;;2.41;88.11;100180.06;5071123;28;20292;-64
2022/01/27 03:43:47;;;;;;;7.07;6.47;;;;;;;2.44;88.24;100181.78;5072136;28;20705;-65
2022/01/27 03:46:16;;;;;;;9.73;7.07;;;;;;;2.46;87.58;100185.19;5071179;28;20278;-65
2022/01/27 03:48:44;;;;;;;7.93;7.13;;;;;;;2.44;87.38;100190.25;5071697;28;20223;-65
2022/01/27 03:51:11;;;;;;;13.27;8.00;;;;;;;2.41;88.53;100184.28;5070731;28;20283;-65
2022/01/27 03:53:38;;;;;;;9.53;8.53;;;;;;;2.52;90.18;100203.00;5067741;28;20201;-65
2022/01/27 03:56:05;;;;;;;8.80;8.00;;;;;;;2.54;90.88;100201.34;5070113;28;20200;-65
2022/01/27 03:58:33;;;;;;;8.60;7.80;;;;;;;2.48;91.53;100206.31;5069740;28;20200;-65
2022/01/27 04:01:01;;;;;;;8.87;7.97;;;;;;;2.40;91.13;100206.19;5071354;28;20656;-64
2022/01/27 04:03:31;;;;;;;10.93;8.07;;;;;;;2.45;91.40;100211.34;5069223;28;20192;-65
2022/01/27 04:06:05;;;;;;;8.63;7.77;;;;;;;2.50;90.88;100213.09;5069590;28;20215;-65
2022/01/27 04:08:32;;;;;;;9.10;8.23;;;;;;;2.50;90.71;100214.78;5068521;28;20226;-65
2022/01/27 04:10:59;;;;;;;9.77;8.17;;;;;;;2.55;90.23;100208.13;5069246;28;20283;-65
2022/01/27 04:13:26;;;;;;;8.87;8.03;;;;;;;2.54;89.79;100211.47;5067956;28;20196;-65
2022/01/27 04:15:53;;;;;;;7.23;6.63;;;;;;;2.53;89.40;100217.34;5068289;28;20196;-65
2022/01/27 04:18:20;;;;;;;8.30;7.57;;;;;;;2.52;88.96;100219.03;5068966;28;20203;-65
2022/01/27 04:20:48;;;;;;;8.33;7.60;;;;;;;2.57;88.70;100216.56;5069174;28;20200;-64
2022/01/27 04:23:17;;;;;;;7.87;7.03;;;;;;;2.61;88.27;100223.41;5068644;28;20280;-65
2022/01/27 04:25:44;;;;;;;8.00;7.27;;;;;;;2.48;88.61;100211.38;5069763;28;20715;-65
2022/01/27 04:28:14;;;;;;;10.23;7.27;;;;;;;2.58;89.32;100228.41;5068798;28;20219;-64
2022/01/27 04:30:41;;;;;;;9.53;8.60;;;;;;;2.46;90.20;100210.50;5069677;28;20298;-66
2022/01/27 04:33:09;;;;;;;9.87;7.13;;;;;;;2.62;90.44;100225.06;5070279;28;20196;-65
2022/01/27 04:35:40;;;;;;;8.43;7.63;;;;;;;2.56;90.69;100232.56;5070752;28;20203;-65
2022/01/27 04:38:19;;;;;;;7.73;6.63;;;;;;;2.55;91.01;100230.91;5070848;28;20196;-64
2022/01/27 04:40:54;;;;;;;5.83;5.50;;;;;;;2.45;90.64;100236.66;5070284;28;20287;-64
2022/01/27 04:43:28;;;;;;;6.97;6.37;;;;;;;2.44;90.96;100235.78;5070083;28;20211;-64
2022/01/27 04:46:03;;;;;;;5.53;5.03;;;;;;;2.52;91.36;100238.44;5070705;28;20197;-65
2022/01/27 04:48:36;;;;;;;7.47;6.37;;;;;;;2.55;91.94;100244.38;5067707;28;20220;-65
2022/01/27 04:51:07;;;;;;;5.93;5.43;;;;;;;2.57;91.94;100252.00;5069999;28;20196;-64
2022/01/27 04:53:40;;;;;;;6.83;6.07;;;;;;;2.50;91.57;100235.03;5067746;28;20679;-65
2022/01/27 04:56:12;;;;;;;6.87;6.13;;;;;;;2.64;91.80;100253.81;5069628;28;20203;-64
2022/01/27 04:58:43;;;;;;;6.40;5.80;;;;;;;2.70;91.15;100253.91;5063851;28;20292;-65
2022/01/27 05:01:10;;;;;;;7.00;6.47;;;;;;;2.72;91.28;100252.22;5070541;28;20200;-65
2022/01/27 05:03:42;;;;;;;5.93;5.43;;;;;;;2.76;91.27;100259.06;5070778;28;20214;-65
2022/01/27 05:06:09;;;;;;;10.07;9.03;;;;;;;2.77;91.53;100262.44;5069664;28;20207;-64
2022/01/27 05:08:37;;;;;;;9.03;8.33;;;;;;;2.80;91.25;100258.28;5070115;28;20314;-65
2022/01/27 05:11:10;;;;;;;7.53;6.93;;;;;;;2.83;91.24;100265.91;5069559;28;20283;-65
2022/01/27 05:13:41;;;;;;;6.93;6.30;;;;;;;2.83;91.07;100265.91;5066975;28;20200;-65
2022/01/27 05:16:08;;;;;;;6.93;6.30;;;;;;;2.87;91.03;100274.41;5069836;28;20709;-64
2022/01/27 05:18:36;;;;;;;8.47;7.60;;;;;;;2.88;90.94;100268.50;5070163;28;20228;-65
2022/01/27 05:21:03;;;;;;;14.77;11.03;;;;;;;2.84;90.82;100267.63;5068539;28;20269;-65
2022/01/27 05:23:30;;;;;;;10.77;9.77;;;;;;;2.90;90.60;100271.91;5069665;28;20204;-65
2022/01/27 05:25:58;;;;;;;14.20;9.63;;;;;;;2.90;90.47;100267.72;5070180;28;20287;-65
2022/01/27 05:28:25;;;;;;;9.57;8.77;;;;;;;2.90;90.35;100277.84;5069450;28;20224;-64
2022/01/27 05:30:52;;;;;;;10.80;8.03;;;;;;;2.91;89.83;100278.69;5069798;28;20192;-65
2022/01/27 05:33:19;;;;;;;9.50;8.50;;;;;;;2.91;89.88;100274.47;5068981;28;20206;-65
2022/01/27 05:35:46;;;;;;;8.03;7.23;;;;;;;2.90;90.47;100267.72;5069050;28;20296;-65
2022/01/27 05:38:15;;;;;;;6.63;6.03;;;;;;;2.91;90.88;100268.56;5069940;28;20265;-64
2022/01/27 05:40:42;;;;;;;9.53;7.60;;;;;;;2.83;91.23;100265.91;5068244;28;20204;-65
2022/01/27 05:43:12;;;;;;;7.57;6.97;;;;;;;2.69;91.86;100267.38;5064693;28;20649;-64
2022/01/27 05:45:39;;;;;;;7.70;6.47;;;;;;;2.62;91.88;100270.63;5063545;28;20234;-65
2022/01/27 05:48:06;;;;;;;8.03;6.37;;;;;;;2.57;91.89;100277.31;5058108;28;20669;-64
2022/01/27 05:50:33;;;;;;;6.37;5.80;;;;;;;2.42;91.43;100254.31;5063860;28;20310;-64
2022/01/27 05:53:01;;;;;;;5.73;5.30;;;;;;;2.55;91.02;100279.81;5067742;28;20196;-64
2022/01/27 05:55:28;;;;;;;6.20;5.67;;;;;;;2.58;91.06;100289.16;5069153;28;20196;-64
2022/01/27 05:57:55;;;;;;;5.60;5.20;;;;;;;2.61;90.26;100295.13;5069410;28;20188;-64
2022/01/27 06:00:24;;;;;;;5.77;5.13;;;;;;;2.65;90.15;100285.88;5067457;28;20300;-64
2022/01/27 06:02:51;;;;;;;6.90;6.13;;;;;;;2.72;90.42;100289.34;5069060;28;20528;-65
2022/01/27 06:05:17;;;;;;;5.77;5.37;;;;;;;2.65;89.90;100285.88;5065091;28;20279;-65
2022/01/27 06:07:44;;;;;;;7.03;6.20;;;;;;;2.76;89.81;100293.63;5069248;28;20212;-65
2022/01/27 06:10:11;;;;;;;6.30;5.70;;;;;;;2.75;89.79;100295.31;5067212;28;20211;-64
2022/01/27 06:12:51;;;;;;;6.73;6.10;;;;;;;2.75;89.55;100297.03;5068943;28;20295;-64
2022/01/27 06:15:18;;;;;;;6.70;6.03;;;;;;;2.75;89.29;100291.97;5068220;28;20192;-65
2022/01/27 06:17:46;;;;;;;5.77;5.00;;;;;;;2.63;89.10;100272.34;5068969;28;20680;-65
2022/01/27 06:20:14;;;;;;;9.67;5.73;;;;;;;2.75;88.74;100297.03;5068534;28;20192;-65
2022/01/27 06:22:41;;;;;;;7.63;5.30;;;;;;;2.73;88.16;100299.50;5069195;28;20214;-65
2022/01/27 06:25:09;;;;;;;4.93;4.53;;;;;;;2.73;87.65;100309.63;5065524;28;20192;-66
2022/01/27 06:27:37;;;;;;;5.10;4.70;;;;;;;2.76;86.97;100302.09;5065370;28;20690;-65
2022/01/27 06:30:06;;;;;;;4.80;4.50;;;;;;;2.70;85.72;100296.06;5068794;28;20290;-65
2022/01/27 06:32:33;;;;;;;6.33;4.60;;;;;;;2.80;85.48;100306.38;5065512;28;20295;-64
2022/01/27 06:35:03;;;;;;;4.87;4.47;;;;;;;2.76;84.94;100312.22;5066851;28;20286;-65
2022/01/27 06:37:31;;;;;;;6.47;5.87;;;;;;;2.78;84.67;100313.09;5068080;28;20208;-65
2022/01/27 06:39:57;;;;;;;11.40;7.77;;;;;;;2.81;85.07;100313.13;5068402;28;20214;-65
2022/01/27 06:42:25;;;;;;;16.90;9.27;;;;;;;2.84;85.22;100317.41;5066391;28;20262;-65
2022/01/27 06:44:52;;;;;;;21.83;12.30;;;;;;;2.89;85.21;100316.66;5064597;28;20330;-65
2022/01/27 06:47:19;;;;;;;29.30;13.63;;;;;;;2.88;85.18;100314.94;5065630;28;20230;-64
2022/01/27 06:49:46;;;;;;;26.60;14.43;;;;;;;2.86;85.23;100306.47;5064944;28;20196;-66
2022/01/27 06:52:14;;;;;;;31.73;15.10;;;;;;;2.97;84.14;100315.06;5065034;28;20212;-68
2022/01/27 06:54:42;;;;;;;40.30;14.87;;;;;;;2.95;84.36;100303.22;5065354;28;20231;-67
2022/01/27 06:57:10;;;;;;;30.00;13.23;;;;;;;3.14;84.55;100323.78;5064794;28;20200;-67
2022/01/27 06:59:37;;;;;;;26.43;13.83;;;;;;;3.25;84.05;100326.47;5062744;28;20204;-67
2022/01/27 07:02:04;;;;;;;19.60;11.73;;;;;;;3.29;83.47;100328.22;5063285;28;20200;-68
2022/01/27 07:04:31;;;;;;;9.07;8.17;;;;;;;3.34;83.68;100335.88;5068078;28;20218;-68
2022/01/27 07:06:58;;;;;;;6.30;5.70;;;;;;;3.34;83.17;100330.78;5071141;28;20200;-66
2022/01/27 07:09:26;;;;;;;5.77;5.37;;;;;;;3.36;83.78;100336.75;5064692;28;20220;-66
2022/01/27 07:11:53;;;;;;;6.07;5.57;;;;;;;3.38;83.94;100342.69;5068641;28;20216;-66
2022/01/27 07:14:20;;;;;;;6.20;5.80;;;;;;;3.41;84.41;100337.66;5068082;28;20200;-65
2022/01/27 07:16:47;;;;;;;5.47;5.07;;;;;;;3.46;84.88;100336.88;5069303;28;20196;-65
2022/01/27 07:19:14;;;;;;;10.23;5.40;;;;;;;3.52;85.25;100334.41;5065604;28;20192;-66
2022/01/27 07:21:41;;;;;;;5.50;5.10;;;;;;;3.55;85.12;100336.16;5066557;28;20241;-65
2022/01/27 07:24:08;;;;;;;6.53;5.97;;;;;;;3.60;85.20;100337.91;5069731;28;20286;-66
2022/01/27 07:26:37;;;;;;;6.70;6.17;;;;;;;3.63;85.26;100349.78;5066176;28;20303;-66
2022/01/27 07:29:04;;;;;;;9.37;8.17;;;;;;;3.66;85.41;100338.00;5064465;28;20213;-67
2022/01/27 07:31:31;;;;;;;14.77;9.40;;;;;;;3.73;86.06;100341.47;5067960;28;20712;-67
2022/01/27 07:33:58;;;;;;;19.27;10.80;;;;;;;3.76;86.29;100331.34;5068627;28;20297;-66
2022/01/27 07:36:25;;;;;;;7.63;7.00;;;;;;;3.81;85.91;100342.41;5069373;28;20208;-66
2022/01/27 07:38:52;;;;;;;7.40;5.47;;;;;;;3.87;85.45;100345.03;5068674;28;20220;-65
2022/01/27 07:41:20;;;;;;;5.97;5.47;;;;;;;3.88;84.31;100338.28;5068878;28;20207;-66
2022/01/27 07:43:49;;;;;;;5.87;5.33;;;;;;;3.93;84.45;100344.22;5069686;28;20237;-66
2022/01/27 07:46:17;;;;;;;5.50;5.20;;;;;;;3.91;84.65;100341.66;5068009;28;20224;-66
2022/01/27 07:48:44;;;;;;;5.83;5.30;;;;;;;3.92;84.07;100343.38;5067497;28;20218;-66
2022/01/27 07:51:11;;;;;;;6.10;5.37;;;;;;;3.92;84.51;100340.84;5067329;28;20287;-66
2022/01/27 07:53:42;;;;;;;10.43;5.40;;;;;;;3.93;83.91;100350.16;5068622;28;20200;-66
2022/01/27 07:56:11;;;;;;;8.43;5.20;;;;;;;3.90;83.85;100350.13;5067847;28;20593;-67
2022/01/27 07:58:40;;;;;;;7.93;5.20;;;;;;;3.84;83.81;100339.06;5069388;28;20253;-66
2022/01/27 08:01:09;;;;;;;6.17;5.60;;;;;;;3.87;83.75;100360.25;5068543;28;20196;-66
2022/01/27 08:03:37;;;;;;;5.77;5.20;;;;;;;3.93;83.40;100364.53;5069869;28;20215;-66
2022/01/27 08:06:04;;;;;;;7.17;6.53;;;;;;;3.93;83.61;100359.44;5069764;28;20261;-66
2022/01/27 08:08:31;;;;;;;6.93;6.27;;;;;;;3.94;83.63;100364.53;5069689;28;20742;-67
2022/01/27 08:10:59;;;;;;;6.80;6.30;;;;;;;3.85;83.23;100346.66;5069586;28;20287;-67
2022/01/27 08:13:27;;;;;;;5.57;5.13;;;;;;;3.92;83.66;100371.28;5069666;28;20577;-66
2022/01/27 08:15:54;;;;;;;6.40;5.80;;;;;;;3.92;83.62;100357.75;5069122;28;20211;-66
2022/01/27 08:18:22;;;;;;;6.63;6.17;;;;;;;3.95;83.48;100368.78;5069335;28;20620;-66
2022/01/27 08:20:50;;;;;;;6.00;5.40;;;;;;;4.00;83.69;100362.09;5069242;28;20200;-66
2022/01/27 08:23:17;;;;;;;5.47;5.07;;;;;;;4.01;84.20;100370.53;5069320;28;20202;-66
2022/01/27 08:25:49;;;;;;;9.37;5.10;;;;;;;3.99;83.70;100370.53;5068839;28;20223;-66
2022/01/27 08:28:23;;;;;;;5.37;4.97;;;;;;;3.87;83.88;100345.03;5069784;28;20215;-66
2022/01/27 08:30:52;;;;;;;4.70;4.07;;;;;;;4.01;84.20;100371.38;5066723;28;20257;-66
2022/01/27 08:33:20;;;;;;;5.97;5.47;;;;;;;4.08;85.07;100383.31;5067700;28;20200;-67
2022/01/27 08:35:48;;;;;;;7.80;4.83;;;;;;;4.14;84.58;100380.84;5064811;28;20659;-67
2022/01/27 08:38:15;;;;;;;8.13;5.57;;;;;;;4.20;84.30;100377.53;5068302;28;20295;-67
2022/01/27 08:40:43;;;;;;;8.70;6.53;;;;;;;4.15;83.43;100361.41;5069059;28;20204;-69
2022/01/27 08:43:10;;;;;;;8.07;5.83;;;;;;;4.31;83.61;100378.50;5068329;28;20219;-69
2022/01/27 08:45:39;;;;;;;15.73;11.90;;;;;;;4.35;84.60;100380.22;5066450;28;20236;-66
2022/01/27 08:48:09;;;;;;;12.80;6.83;;;;;;;4.44;84.96;100389.63;5067117;28;20204;-65
2022/01/27 08:50:36;;;;;;;5.27;4.93;;;;;;;4.50;85.04;100387.13;5067528;28;20192;-66
2022/01/27 08:53:04;;;;;;;5.33;5.00;;;;;;;4.61;85.03;100391.50;5069649;28;20218;-67
2022/01/27 08:55:31;;;;;;;5.60;5.20;;;;;;;4.63;84.90;100386.41;5069098;28;20196;-67
2022/01/27 08:57:58;;;;;;;5.30;5.00;;;;;;;4.68;83.34;100384.81;5068590;28;20672;-68
2022/01/27 09:00:25;;;;;;;6.67;6.07;;;;;;;4.75;83.00;100384.00;5066832;28;20242;-67
2022/01/27 09:02:53;;;;;;;6.83;6.03;;;;;;;4.78;83.11;100389.13;5066698;28;20192;-67
2022/01/27 09:05:20;;;;;;;6.00;5.50;;;;;;;4.83;81.80;100392.53;5064362;28;20207;-68
2022/01/27 09:07:47;;;;;;;10.13;9.10;;;;;;;4.75;81.30;100361.13;5064557;28;20202;-68
2022/01/27 09:10:15;;;;;;;7.47;6.67;;;;;;;4.96;80.99;100386.72;5067602;28;20220;-67
2022/01/27 09:12:42;;;;;;;11.27;6.17;;;;;;;5.06;81.38;100398.69;5066851;28;20710;-68
2022/01/27 09:15:10;;;;;;;6.03;5.50;;;;;;;5.16;81.51;100380.13;5066976;28;20219;-67
2022/01/27 09:17:40;;;;;;;5.10;4.80;;;;;;;5.18;82.16;100383.50;5067118;28;20204;-67
2022/01/27 09:20:09;;;;;;;5.30;4.80;;;;;;;5.26;81.44;100386.97;5064628;28;20192;-68
2022/01/27 09:22:37;;;;;;;4.87;4.57;;;;;;;5.30;80.87;100382.72;5066862;28;20667;-67
2022/01/27 09:25:11;;;;;;;5.73;5.33;;;;;;;5.39;79.56;100387.03;5065509;28;20232;-67
2022/01/27 09:27:39;;;;;;;5.60;5.23;;;;;;;5.49;79.78;100383.72;5065776;28;20204;-68
2022/01/27 09:30:07;;;;;;;6.97;6.37;;;;;;;5.48;79.08;100376.94;5064258;28;20220;-67
2022/01/27 09:32:34;;;;;;;6.27;5.87;;;;;;;5.52;78.78;100374.41;5067594;28;20204;-67
2022/01/27 09:35:01;;;;;;;11.30;6.07;;;;;;;5.56;78.82;100375.25;5065528;28;20291;-67
2022/01/27 09:37:28;;;;;;;8.30;5.77;;;;;;;5.61;78.40;100379.56;5062293;28;20291;-67
2022/01/27 09:39:55;;;;;;;5.70;5.10;;;;;;;5.71;77.19;100380.44;5063724;28;20224;-68
2022/01/27 09:42:24;;;;;;;5.30;5.00;;;;;;;5.79;77.39;100381.31;5060261;28;20299;-67
2022/01/27 09:44:54;;;;;;;5.87;5.47;;;;;;;5.81;75.90;100383.06;5064340;28;20231;-67
2022/01/27 09:47:25;;;;;;;6.40;5.90;;;;;;;5.84;76.19;100366.94;5062410;28;20204;-67
2022/01/27 09:50:03;;;;;;;6.47;5.97;;;;;;;5.91;76.52;100358.53;5067048;28;20220;-67
2022/01/27 09:52:30;;;;;;;5.60;5.10;;;;;;;5.90;75.60;100355.97;5063983;28;20919;-67
2022/01/27 09:54:58;;;;;;;5.27;4.97;;;;;;;5.97;75.23;100356.00;5067346;28;20283;-68
2022/01/27 09:57:25;;;;;;;11.93;9.00;;;;;;;5.95;76.32;100349.19;5064071;28;20276;-67
2022/01/27 09:59:53;;;;;;;7.77;7.03;;;;;;;6.03;75.67;100350.06;5064065;28;20203;-68
2022/01/27 10:02:22;;;;;;;5.50;5.20;;;;;;;6.09;76.07;100345.00;5063566;28;20203;-68
2022/01/27 10:04:50;;;;;;;6.43;5.93;;;;;;;6.05;75.68;100341.59;5061470;28;20580;-67
2022/01/27 10:07:20;;;;;;;5.87;5.47;;;;;;;6.08;75.87;100335.66;5062593;28;20266;-68
2022/01/27 10:09:58;;;;;;;5.30;5.00;;;;;;;6.06;75.48;100333.13;5062510;28;20273;-67
2022/01/27 10:12:27;;;;;;;4.70;4.40;;;;;;;6.08;75.38;100331.41;5063828;28;20945;-68
2022/01/27 10:15:00;;;;;;;5.03;4.63;;;;;;;6.05;75.07;100320.38;5063531;28;20223;-68
2022/01/27 10:17:29;;;;;;;7.03;4.77;;;;;;;5.99;75.61;100320.38;5067618;28;20227;-67
2022/01/27 10:19:57;;;;;;;4.60;4.30;;;;;;;5.85;74.91;100309.28;5064667;28;20247;-67
2022/01/27 10:22:24;;;;;;;5.10;4.80;;;;;;;5.94;75.46;100317.81;5065914;28;20203;-67
2022/01/27 10:25:01;;;;;;;5.50;5.20;;;;;;;5.95;76.06;100306.78;5064894;28;20291;-68
2022/01/27 10:27:33;;;;;;;6.57;5.93;;;;;;;5.92;75.66;100304.22;5062887;28;20253;-67
2022/01/27 10:30:36;;;;;;;5.87;5.43;;;;;;;5.94;75.62;100282.19;5062853;28;20223;-68
2022/01/27 10:32:55;;;;;;;4.67;4.37;;;;;;;5.96;75.38;100294.91;5064409;28;20211;-67
2022/01/27 10:35:25;;;;;;;5.30;4.80;;;;;;;5.96;75.09;100295.75;5063192;28;20213;-68
2022/01/27 10:38:02;;;;;;;4.77;4.37;;;;;;;5.96;75.64;100295.75;5063619;28;20683;-68
2022/01/27 10:40:32;;;;;;;4.77;4.47;;;;;;;5.97;75.51;100292.38;5068205;28;20284;-67
2022/01/27 10:43:04;;;;;;;4.60;4.30;;;;;;;5.98;74.75;100288.97;5071099;28;20246;-67
2022/01/27 10:45:33;;;;;;;3.87;3.67;;;;;;;5.94;73.92;100289.84;5069747;28;20219;-67
2022/01/27 10:48:14;;;;;;;3.60;3.40;;;;;;;5.91;73.84;100292.38;5066102;28;20296;-73
2022/01/27 10:50:49;;;;;;;16.80;5.17;;;;;;;5.86;74.99;100294.03;5060335;28;20332;-68
2022/01/27 10:53:20;;;;;;;3.97;3.70;;;;;;;5.92;75.20;100288.97;5069363;28;20230;-67
2022/01/27 10:56:03;;;;;;;5.00;4.70;;;;;;;5.96;75.41;100285.59;5069605;28;20727;-68
2022/01/27 10:58:31;;;;;;;4.77;4.27;;;;;;;6.00;74.62;100282.22;5068425;28;20220;-68
2022/01/27 11:01:01;;;;;;;5.90;5.53;;;;;;;6.07;75.13;100283.94;5069546;28;21673;-68
2022/01/27 11:03:29;;;;;;;6.10;5.50;;;;;;;6.14;75.02;100283.06;5070127;28;20200;-68
2022/01/27 11:06:08;;;;;;;3.90;3.60;;;;;;;6.14;74.02;100264.41;5063812;28;20204;-67
2022/01/27 11:08:37;;;;;;;4.40;4.20;;;;;;;6.25;73.52;100280.53;5068939;28;20203;-67
2022/01/27 11:11:05;;;;;;;7.13;4.70;;;;;;;6.28;73.46;100276.31;5069237;28;20303;-67
2022/01/27 11:13:35;;;;;;;4.07;3.87;;;;;;;6.28;73.09;100268.66;5069472;28;20269;-67
2022/01/27 11:16:05;;;;;;;4.20;4.00;;;;;;;6.05;72.55;100218.56;5067335;28;20253;-67
2022/01/27 11:18:33;;;;;;;12.40;8.30;;;;;;;6.37;73.22;100269.50;5067472;28;20208;-68
2022/01/27 11:21:04;;;;;;;36.77;17.30;;;;;;;6.45;73.62;100262.72;5069880;28;20226;-67
2022/01/27 11:24:04;;;;;;;16.27;9.93;;;;;;;6.51;72.84;100261.03;5070472;28;20204;-67
2022/01/27 11:26:32;;;;;;;5.33;5.03;;;;;;;6.51;70.18;100248.31;5069495;28;20216;-67
2022/01/27 11:28:59;;;;;;;5.17;4.87;;;;;;;6.47;71.04;100259.34;5069475;28;20814;-67
2022/01/27 11:31:39;;;;;;;6.27;5.83;;;;;;;6.43;70.88;100259.34;5068539;28;20197;-67
2022/01/27 11:34:07;;;;;;;24.50;14.60;;;;;;;6.45;71.60;100257.63;5069507;28;20204;-67
2022/01/27 11:36:36;;;;;;;6.67;6.27;;;;;;;6.46;70.91;100254.25;5068765;28;20208;-67
2022/01/27 11:39:08;;;;;;;7.27;4.93;;;;;;;6.47;70.32;100253.38;5070442;28;20235;-67
2022/01/27 11:41:48;;;;;;;4.93;4.63;;;;;;;6.49;70.17;100250.00;5067886;28;20219;-67
2022/01/27 11:44:22;;;;;;;6.00;4.67;;;;;;;6.49;69.61;100241.53;5066989;28;20725;-67
2022/01/27 11:47:20;;;;;;;5.63;5.23;;;;;;;6.61;70.72;100246.59;5069336;28;20260;-67
2022/01/27 11:49:56;;;;;;;4.60;4.30;;;;;;;6.68;69.89;100250.84;5068551;28;20592;-67
2022/01/27 11:52:26;;;;;;;4.73;4.30;;;;;;;6.61;69.68;100227.06;5068185;28;20204;-66
2022/01/27 11:54:53;;;;;;;3.97;3.63;;;;;;;6.75;68.88;100239.81;5068981;28;20200;-67
2022/01/27 11:57:43;;;;;;;3.17;3.07;;;;;;;6.81;68.26;100237.25;5068310;28;20204;-67
2022/01/27 12:00:17;;;;;;;3.77;3.40;;;;;;;6.87;65.39;100237.22;5068865;28;20739;-67
2022/01/27 12:03:12;;;;;;;3.03;2.83;;;;;;;6.94;65.00;100231.28;5069062;28;20204;-67
2022/01/27 12:05:41;;;;;;;2.90;2.70;;;;;;;6.98;65.13;100221.91;5066927;28;20208;-66